Time;durP1;ratioP1;P1;durP2;ratioP2;P2;SDS_P1;SDS_P2;PMS_P1;PMS_P2;Temp;Humidity;BMP_temperature;BMP_pressure;BME280_temperature;BME280_humidity;BME280_pressure;Samples;Min_cycle;Max_cycle;Signal;HPM_P1;HPM_P2
2023/03/09 00:02:09;;;;;;;27.15;20.77;;;;;;;0.20;100.00;99004.91;5114753;28;20019;-57
2023/03/09 00:04:35;;;;;;;26.13;20.67;;;;;;;0.20;100.00;98994.44;5115110;27;20055;-56
2023/03/09 00:07:01;;;;;;;26.38;20.95;;;;;;;0.18;100.00;98990.19;5114227;27;20108;-59
2023/03/09 00:09:26;;;;;;;26.17;20.38;;;;;;;0.17;100.00;98985.06;5113747;27;20432;-57
2023/03/09 00:11:51;;;;;;;25.50;20.77;;;;;;;0.17;100.00;98985.88;5114824;27;20107;-60
2023/03/09 00:14:20;;;;;;;24.13;19.65;;;;;;;0.17;100.00;98988.50;5114557;28;20114;-59
2023/03/09 00:16:46;;;;;;;26.10;19.77;;;;;;;0.16;100.00;98965.09;5114210;27;20455;-57
2023/03/09 00:19:11;;;;;;;27.55;20.90;;;;;;;0.17;100.00;98957.16;5096818;28;20031;-58
2023/03/09 00:21:38;;;;;;;27.38;20.63;;;;;;;0.17;100.00;98998.13;5113609;27;20449;-57
2023/03/09 00:24:12;;;;;;;26.13;20.50;;;;;;;0.16;100.00;99006.88;5106034;27;20047;-58
2023/03/09 00:26:41;;;;;;;26.52;19.63;;;;;;;0.15;100.00;99013.00;5099253;28;20047;-59
2023/03/09 00:29:08;;;;;;;26.98;20.35;;;;;;;0.16;100.00;99031.19;5114504;28;20500;-60
2023/03/09 00:31:34;;;;;;;28.27;20.73;;;;;;;0.16;100.00;99028.59;5114918;27;20090;-59
2023/03/09 00:33:59;;;;;;;25.77;20.20;;;;;;;0.18;100.00;99042.41;5114115;28;20027;-60
2023/03/09 00:36:24;;;;;;;29.25;22.00;;;;;;;0.17;100.00;99048.53;5114006;27;20028;-59
2023/03/09 00:38:54;;;;;;;29.38;22.77;;;;;;;0.17;100.00;99042.50;5114521;27;20516;-59
2023/03/09 00:41:21;;;;;;;30.05;22.77;;;;;;;0.17;100.00;99045.94;5113369;28;20035;-60
2023/03/09 00:43:47;;;;;;;29.08;21.98;;;;;;;0.18;100.00;99052.84;5114638;27;20046;-60
2023/03/09 00:46:13;;;;;;;30.17;22.73;;;;;;;0.18;100.00;99057.22;5126774;27;20078;-60
2023/03/09 00:48:39;;;;;;;28.60;22.38;;;;;;;0.19;100.00;99056.28;5123892;27;20464;-59
2023/03/09 00:51:06;;;;;;;28.52;21.50;;;;;;;0.20;100.00;99060.59;5124272;27;20043;-59
2023/03/09 00:53:31;;;;;;;28.50;21.30;;;;;;;0.21;100.00;99057.03;5115219;27;20042;-60
2023/03/09 00:56:04;;;;;;;28.60;21.83;;;;;;;0.22;100.00;99060.47;5115335;27;20024;-59
2023/03/09 00:58:29;;;;;;;28.92;22.17;;;;;;;0.20;100.00;99065.81;5114797;27;20027;-58
2023/03/09 01:00:55;;;;;;;28.50;21.70;;;;;;;0.21;100.00;99082.28;5129319;27;20022;-59
2023/03/09 01:03:20;;;;;;;27.20;21.40;;;;;;;0.20;100.00;99071.03;5124268;27;20106;-59
2023/03/09 01:05:46;;;;;;;29.52;21.95;;;;;;;0.23;100.00;99085.66;5122231;27;20039;-60
2023/03/09 01:08:11;;;;;;;27.80;21.25;;;;;;;0.24;100.00;99095.16;5115892;27;20047;-60
2023/03/09 01:10:41;;;;;;;28.48;21.40;;;;;;;0.25;100.00;99115.97;5117205;27;20081;-60
2023/03/09 01:13:06;;;;;;;28.95;21.67;;;;;;;0.27;100.00;99139.38;5124879;27;20043;-60
2023/03/09 01:15:31;;;;;;;27.83;20.75;;;;;;;0.26;100.00;99141.13;5121318;27;20023;-60
2023/03/09 01:17:57;;;;;;;28.95;21.85;;;;;;;0.26;100.00;99133.28;5122520;27;20036;-60
2023/03/09 01:20:22;;;;;;;26.38;20.92;;;;;;;0.27;100.00;99124.53;5122018;27;20035;-59
2023/03/09 01:22:48;;;;;;;26.30;20.13;;;;;;;0.29;100.00;99130.50;5132104;27;20030;-60
2023/03/09 01:25:13;;;;;;;26.58;20.85;;;;;;;0.28;100.00;99126.19;5120891;27;20198;-59
2023/03/09 01:27:38;;;;;;;29.13;21.33;;;;;;;0.30;100.00;99129.56;5112718;28;20583;-59
2023/03/09 01:30:05;;;;;;;27.77;21.27;;;;;;;0.30;100.00;99144.38;5111280;28;20153;-61
2023/03/09 01:32:30;;;;;;;28.42;21.35;;;;;;;0.32;100.00;99156.41;5112414;28;20478;-61
2023/03/09 01:34:56;;;;;;;29.00;21.75;;;;;;;0.32;100.00;99171.25;5117570;27;20035;-60
2023/03/09 01:37:21;;;;;;;28.50;21.63;;;;;;;0.33;100.00;99163.34;5114478;27;20413;-60
2023/03/09 01:39:46;;;;;;;27.83;21.40;;;;;;;0.33;100.00;99163.34;5115870;27;20023;-60
2023/03/09 01:42:12;;;;;;;26.00;20.70;;;;;;;0.35;100.00;99163.22;5110889;27;20063;-61
2023/03/09 01:44:37;;;;;;;26.90;20.77;;;;;;;0.37;100.00;99161.38;5112621;28;20024;-59
2023/03/09 01:47:02;;;;;;;27.70;21.42;;;;;;;0.37;100.00;99158.75;5112478;28;20039;-59
2023/03/09 01:49:51;;;;;;;29.20;21.23;;;;;;;0.39;100.00;99161.28;5112131;28;20101;-61
2023/03/09 01:52:20;;;;;;;29.08;21.92;;;;;;;0.39;100.00;99166.50;5112754;27;20019;-60
2023/03/09 01:55:00;;;;;;;28.52;21.63;;;;;;;0.40;100.00;99179.47;5120407;27;20024;-61
2023/03/09 01:57:40;;;;;;;28.67;21.17;;;;;;;0.40;100.00;99174.25;5109325;27;20022;-60
2023/03/09 02:00:14;;;;;;;28.20;21.25;;;;;;;0.41;100.00;99172.47;5117890;27;20032;-59
2023/03/09 02:02:46;;;;;;;27.83;20.45;;;;;;;0.42;100.00;99188.03;5112040;28;20537;-58
2023/03/09 02:05:17;;;;;;;28.20;21.80;;;;;;;0.43;100.00;99197.53;5112403;28;20038;-59
2023/03/09 02:07:46;;;;;;;29.15;22.02;;;;;;;0.43;100.00;99200.16;5119326;27;20488;-60
2023/03/09 02:10:25;;;;;;;27.80;21.70;;;;;;;0.45;100.00;99206.16;5099332;28;20028;-61
2023/03/09 02:12:53;;;;;;;;;;;;;;;0.52;100.00;99202.22;5109930;28;20108;-59
2023/03/09 02:15:20;;;;;;;30.25;21.42;;;;;;;0.47;100.00;99191.22;5113678;28;19903;-60
2023/03/09 02:17:46;;;;;;;29.83;22.48;;;;;;;0.46;100.00;99189.53;5112679;28;20030;-61
2023/03/09 02:20:31;;;;;;;29.73;22.75;;;;;;;0.47;100.00;99172.09;5113406;27;20038;-61
2023/03/09 02:22:57;;;;;;;29.05;21.85;;;;;;;0.46;100.00;99186.91;5112990;28;20043;-60
2023/03/09 02:25:32;;;;;;;31.05;23.00;;;;;;;0.47;100.00;99187.78;5096628;28;20426;-61
2023/03/09 02:27:59;;;;;;;30.60;22.75;;;;;;;0.47;100.00;99188.59;5114186;28;20434;-61
2023/03/09 02:30:26;;;;;;;30.75;22.98;;;;;;;0.47;100.00;99190.38;5114580;28;20031;-61
2023/03/09 02:33:03;;;;;;;31.63;22.48;;;;;;;0.48;100.00;99195.50;5115561;28;20043;-61
2023/03/09 02:35:28;;;;;;;30.42;22.00;;;;;;;0.48;100.00;99207.72;5113710;28;20565;-62
2023/03/09 02:37:53;;;;;;;30.38;22.73;;;;;;;0.47;100.00;99216.50;5112093;28;20110;-60
2023/03/09 02:40:29;;;;;;;30.50;22.88;;;;;;;0.50;100.00;99226.72;5101339;28;20028;-62
2023/03/09 02:42:54;;;;;;;30.98;23.50;;;;;;;0.48;100.00;99224.25;5099066;28;20505;-61
2023/03/09 02:45:23;;;;;;;32.38;23.20;;;;;;;0.49;100.00;99220.69;5093237;28;20034;-61
2023/03/09 02:47:49;;;;;;;29.67;22.70;;;;;;;0.48;100.00;99211.19;5111563;28;20103;-61
2023/03/09 02:50:16;;;;;;;31.55;23.42;;;;;;;0.48;100.00;99220.78;5111340;28;20031;-60
2023/03/09 02:52:41;;;;;;;30.58;21.95;;;;;;;0.49;100.00;99219.84;5112013;28;20489;-61
2023/03/09 02:55:07;;;;;;;29.88;22.65;;;;;;;0.51;100.00;99228.44;5111527;28;20073;-61
2023/03/09 02:57:32;;;;;;;29.77;22.00;;;;;;;0.49;100.00;99220.69;5102085;28;20098;-60
2023/03/09 02:59:58;;;;;;;31.90;23.23;;;;;;;0.49;100.00;99215.47;5098615;28;20471;-61
2023/03/09 03:02:23;;;;;;;31.48;22.88;;;;;;;0.47;100.00;99203.44;5112335;28;20039;-61
2023/03/09 03:04:48;;;;;;;32.25;23.48;;;;;;;0.47;100.00;99212.09;5111207;28;20115;-60
2023/03/09 03:07:14;;;;;;;32.13;23.73;;;;;;;0.47;100.00;99224.34;5111685;28;20126;-60
2023/03/09 03:09:39;;;;;;;30.08;22.95;;;;;;;0.47;100.00;99224.34;5112499;28;20423;-59
2023/03/09 03:12:05;;;;;;;31.90;23.55;;;;;;;0.46;100.00;99217.41;5106961;27;20035;-61
2023/03/09 03:14:30;;;;;;;31.05;22.95;;;;;;;0.46;100.00;99215.63;5116060;28;20024;-61
2023/03/09 03:16:55;;;;;;;34.67;25.45;;;;;;;0.45;100.00;99220.94;5115351;28;20023;-61
2023/03/09 03:19:21;;;;;;;30.35;22.88;;;;;;;0.44;100.00;99234.97;5116061;27;20081;-61
2023/03/09 03:21:48;;;;;;;34.97;24.00;;;;;;;0.45;100.00;99226.19;5117631;27;20115;-61
2023/03/09 03:24:14;;;;;;;31.90;23.85;;;;;;;0.44;100.00;99233.19;5116009;27;20062;-61
2023/03/09 03:26:39;;;;;;;33.65;23.92;;;;;;;0.43;100.00;99233.28;5117575;27;20047;-61
2023/03/09 03:29:04;;;;;;;34.10;24.45;;;;;;;0.44;100.00;99243.63;5116407;28;20068;-61
2023/03/09 03:31:29;;;;;;;32.83;24.23;;;;;;;0.42;100.00;99245.50;5116571;27;20019;-61
2023/03/09 03:33:55;;;;;;;35.03;24.48;;;;;;;0.44;100.00;99261.09;5110846;28;20051;-61
2023/03/09 03:36:20;;;;;;;35.83;26.42;;;;;;;0.43;100.00;99277.69;5116700;27;20107;-61
2023/03/09 03:38:45;;;;;;;34.85;25.50;;;;;;;0.44;100.00;99298.47;5117658;27;20027;-61
2023/03/09 03:41:11;;;;;;;37.75;26.27;;;;;;;0.45;100.00;99296.69;5116338;27;20102;-61
2023/03/09 03:43:36;;;;;;;38.33;25.20;;;;;;;0.46;100.00;99301.00;5103212;27;20493;-61
2023/03/09 03:46:01;;;;;;;36.90;26.50;;;;;;;0.45;100.00;99294.94;5110260;27;20031;-61
2023/03/09 03:48:26;;;;;;;38.03;26.35;;;;;;;0.47;100.00;99300.91;5114566;28;20194;-61
2023/03/09 03:50:52;;;;;;;34.05;25.55;;;;;;;0.47;100.00;99298.31;5114435;28;20031;-61
2023/03/09 03:53:17;;;;;;;37.65;26.48;;;;;;;0.47;100.00;99293.09;5114089;28;20035;-61
2023/03/09 03:55:43;;;;;;;37.90;26.17;;;;;;;0.46;100.00;99291.38;5114725;28;20119;-60
2023/03/09 03:58:08;;;;;;;37.85;27.38;;;;;;;0.46;100.00;99299.22;5114741;28;20044;-61
2023/03/09 04:00:34;;;;;;;39.03;27.40;;;;;;;0.47;100.00;99297.47;5114972;28;20026;-61
2023/03/09 04:02:59;;;;;;;38.03;27.42;;;;;;;0.46;100.00;99303.63;5114371;28;20032;-61
2023/03/09 04:05:25;;;;;;;40.28;27.13;;;;;;;0.44;100.00;99303.72;5114689;28;20024;-61
2023/03/09 04:07:51;;;;;;;38.33;27.45;;;;;;;0.46;100.00;99301.84;5111685;28;20023;-61
2023/03/09 04:10:17;;;;;;;43.10;29.50;;;;;;;0.45;100.00;99294.09;5115327;27;20028;-61
2023/03/09 04:12:43;;;;;;;39.75;28.50;;;;;;;0.45;100.00;99310.63;5112706;27;20027;-62
2023/03/09 04:15:09;;;;;;;41.80;29.48;;;;;;;0.46;100.00;99312.28;5102744;27;20482;-62
2023/03/09 04:17:34;;;;;;;43.50;29.40;;;;;;;0.47;100.00;99319.19;5113747;28;20031;-61
2023/03/09 04:19:59;;;;;;;43.53;30.17;;;;;;;0.47;100.00;99319.19;5115061;27;20032;-61
2023/03/09 04:22:25;;;;;;;45.92;29.65;;;;;;;0.47;100.00;99329.66;5106060;28;20036;-61
2023/03/09 04:24:50;;;;;;;45.17;29.40;;;;;;;0.46;100.00;99327.13;5109913;28;20032;-62
2023/03/09 04:27:16;;;;;;;44.00;29.58;;;;;;;0.47;100.00;99334.03;5104080;28;20019;-61
2023/03/09 04:29:41;;;;;;;44.88;31.02;;;;;;;0.46;100.00;99333.19;5111514;28;20390;-61
2023/03/09 04:32:07;;;;;;;44.70;30.05;;;;;;;0.46;100.00;99335.78;5115528;27;20028;-61
2023/03/09 04:34:32;;;;;;;48.15;32.55;;;;;;;0.44;100.00;99337.66;5114824;27;20477;-61
2023/03/09 04:36:58;;;;;;;47.92;31.02;;;;;;;0.45;100.00;99341.97;5111321;28;20043;-61
2023/03/09 04:39:23;;;;;;;46.80;31.58;;;;;;;0.46;100.00;99341.00;5113480;27;20032;-62
2023/03/09 04:41:49;;;;;;;45.13;30.80;;;;;;;0.46;100.00;99342.78;5113852;28;20456;-61
2023/03/09 04:44:14;;;;;;;46.08;30.60;;;;;;;0.45;100.00;99357.63;5114568;27;20482;-62
2023/03/09 04:46:39;;;;;;;49.47;31.95;;;;;;;0.46;100.00;99356.69;5114236;28;20048;-61
2023/03/09 04:49:05;;;;;;;46.88;32.03;;;;;;;0.47;100.00;99358.38;5115509;27;20027;-62
2023/03/09 04:51:30;;;;;;;46.83;31.85;;;;;;;0.46;100.00;99356.69;5114078;28;20027;-61
2023/03/09 04:53:56;;;;;;;49.05;32.58;;;;;;;0.45;100.00;99362.88;5113856;28;20051;-61
2023/03/09 04:56:22;;;;;;;49.95;33.55;;;;;;;0.44;100.00;99366.41;5095111;28;20012;-60
2023/03/09 04:58:47;;;;;;;48.58;32.10;;;;;;;0.44;100.00;99374.22;5112855;28;20040;-62
2023/03/09 05:01:13;;;;;;;49.58;31.90;;;;;;;0.44;100.00;99363.78;5107187;28;20039;-60
2023/03/09 05:03:38;;;;;;;49.63;32.10;;;;;;;0.44;100.00;99369.00;5108763;28;20051;-62
2023/03/09 05:06:04;;;;;;;53.25;33.30;;;;;;;0.44;100.00;99387.28;5110286;27;20028;-62
2023/03/09 05:08:29;;;;;;;56.42;33.80;;;;;;;0.44;100.00;99384.69;5113682;27;20024;-62
2023/03/09 05:10:54;;;;;;;53.65;33.97;;;;;;;0.43;100.00;99392.59;5113558;27;20023;-60
2023/03/09 05:13:20;;;;;;;56.47;35.08;;;;;;;0.41;100.00;99400.53;5113711;27;20034;-62
2023/03/09 05:15:45;;;;;;;53.47;33.90;;;;;;;0.41;100.00;99407.53;5111954;28;20030;-62
2023/03/09 05:18:11;;;;;;;53.83;33.97;;;;;;;0.42;100.00;99411.81;5112566;28;20038;-62
2023/03/09 05:20:38;;;;;;;57.63;35.35;;;;;;;0.41;100.00;99424.03;5113044;28;20026;-62
2023/03/09 05:23:03;;;;;;;59.25;35.67;;;;;;;0.42;100.00;99419.63;5108965;28;20035;-62
2023/03/09 05:25:29;;;;;;;59.05;35.03;;;;;;;0.41;100.00;99418.81;5112480;27;20046;-62
2023/03/09 05:27:55;;;;;;;54.65;35.78;;;;;;;0.43;100.00;99416.09;5112507;28;20028;-62
2023/03/09 05:30:20;;;;;;;62.25;37.78;;;;;;;0.43;100.00;99406.50;5110941;28;20027;-62
2023/03/09 05:32:48;;;;;;;58.15;36.15;;;;;;;0.44;100.00;99423.03;5112248;28;20090;-62
2023/03/09 05:35:13;;;;;;;62.20;37.00;;;;;;;0.44;100.00;99417.81;5106027;28;20020;-62
2023/03/09 05:37:39;;;;;;;63.00;37.58;;;;;;;0.44;100.00;99423.84;5106448;28;20367;-61
2023/03/09 05:40:05;;;;;;;60.85;37.92;;;;;;;0.46;100.00;99431.59;5109225;28;20096;-62
2023/03/09 05:42:31;;;;;;;61.58;37.45;;;;;;;0.46;100.00;99422.00;5108434;27;20039;-62
2023/03/09 05:44:56;;;;;;;61.75;38.20;;;;;;;0.46;100.00;99415.94;5112893;27;20034;-62
2023/03/09 05:47:21;;;;;;;63.50;40.47;;;;;;;0.47;100.00;99412.41;5112981;28;20426;-61
2023/03/09 05:49:48;;;;;;;61.53;38.95;;;;;;;0.46;100.00;99415.94;5115279;27;20028;-62
2023/03/09 05:52:14;;;;;;;63.30;38.63;;;;;;;0.47;100.00;99415.03;5115355;27;20118;-62
2023/03/09 05:54:39;;;;;;;63.00;37.42;;;;;;;0.45;100.00;99422.06;5107645;28;20099;-62
2023/03/09 05:57:05;;;;;;;64.75;39.65;;;;;;;0.45;100.00;99429.91;5105662;28;20542;-62
2023/03/09 05:59:30;;;;;;;65.38;39.28;;;;;;;0.46;100.00;99447.28;5112182;27;20024;-62
2023/03/09 06:01:55;;;;;;;60.03;37.92;;;;;;;0.46;100.00;99442.06;5112262;28;20031;-62
2023/03/09 06:04:20;;;;;;;62.53;37.83;;;;;;;0.47;100.00;99443.75;5112401;28;20023;-62
2023/03/09 06:06:46;;;;;;;60.80;37.60;;;;;;;0.47;100.00;99435.91;5081028;28;20064;-62
2023/03/09 06:09:11;;;;;;;66.22;39.90;;;;;;;0.47;100.00;99439.38;5110837;28;20478;-62
2023/03/09 06:11:36;;;;;;;62.72;37.67;;;;;;;0.48;100.00;99441.06;5112608;28;20039;-62
2023/03/09 06:14:02;;;;;;;60.28;38.45;;;;;;;0.50;100.00;99440.94;5112481;28;20153;-61
2023/03/09 06:16:27;;;;;;;63.30;40.00;;;;;;;0.49;100.00;99445.34;5108322;28;20038;-62
2023/03/09 06:18:55;;;;;;;60.90;36.90;;;;;;;0.50;100.00;99454.00;5111997;28;20047;-62
2023/03/09 06:21:20;;;;;;;60.38;37.13;;;;;;;0.51;100.00;99464.38;5110136;28;20076;-62
2023/03/09 06:23:46;;;;;;;65.43;37.88;;;;;;;0.51;100.00;99453.91;5112196;28;20102;-62
2023/03/09 06:26:12;;;;;;;61.88;38.20;;;;;;;0.53;100.00;99461.66;5113510;27;20507;-62
2023/03/09 06:28:38;;;;;;;61.80;37.90;;;;;;;0.53;100.00;99474.72;5111995;27;20020;-62
2023/03/09 06:31:11;;;;;;;65.85;38.00;;;;;;;0.54;100.00;99479.03;5112909;28;20458;-62
2023/03/09 06:33:37;;;;;;;65.55;38.28;;;;;;;0.57;100.00;99478.00;5112805;28;20023;-62
2023/03/09 06:36:03;;;;;;;63.42;38.65;;;;;;;0.59;100.00;99479.63;5090901;28;20028;-62
2023/03/09 06:38:28;;;;;;;59.42;37.45;;;;;;;0.60;100.00;99481.31;5111587;28;20081;-62
2023/03/09 06:40:54;;;;;;;66.78;40.72;;;;;;;0.62;100.00;99496.91;5114786;28;20044;-62
2023/03/09 06:43:20;;;;;;;58.25;37.55;;;;;;;0.65;100.00;99497.56;5114060;28;20035;-62
2023/03/09 06:45:45;;;;;;;59.25;37.60;;;;;;;0.67;100.00;99494.88;5116426;27;20642;-62
2023/03/09 06:48:11;;;;;;;59.40;38.38;;;;;;;0.67;100.00;99503.53;5109997;28;20040;-63
2023/03/09 06:50:36;;;;;;;62.60;37.72;;;;;;;0.68;100.00;99510.47;5116503;28;20091;-63
2023/03/09 06:53:02;;;;;;;58.72;37.05;;;;;;;0.68;100.00;99518.28;5094049;28;20025;-64
2023/03/09 06:55:27;;;;;;;58.95;37.13;;;;;;;0.69;100.00;99519.13;5117064;28;20072;-63
2023/03/09 06:57:52;;;;;;;60.13;37.25;;;;;;;0.70;100.00;99526.88;5115646;28;20137;-64
2023/03/09 07:00:18;;;;;;;60.05;36.83;;;;;;;0.72;100.00;99529.41;5111343;28;20021;-64
2023/03/09 07:02:43;;;;;;;60.85;38.47;;;;;;;0.72;100.00;99535.47;5111489;28;20111;-63
2023/03/09 07:05:09;;;;;;;56.38;36.47;;;;;;;0.75;100.00;99542.31;5116393;28;20032;-63
2023/03/09 07:07:34;;;;;;;58.13;37.05;;;;;;;0.76;100.00;99551.81;5117110;27;20653;-63
2023/03/09 07:10:00;;;;;;;59.80;37.10;;;;;;;0.78;100.00;99555.19;5116363;28;20426;-64
2023/03/09 07:12:25;;;;;;;59.85;38.30;;;;;;;0.78;100.00;99563.00;5119023;27;20020;-63
2023/03/09 07:14:50;;;;;;;57.67;36.45;;;;;;;0.79;100.00;99577.78;5102458;28;20073;-64
2023/03/09 07:17:16;;;;;;;57.97;36.50;;;;;;;0.80;100.00;99589.06;5116290;28;20374;-63
2023/03/09 07:19:42;;;;;;;62.00;37.95;;;;;;;0.81;100.00;99588.16;5106715;27;20120;-64
2023/03/09 07:22:09;;;;;;;61.05;38.03;;;;;;;0.80;100.00;99583.84;5114221;28;20031;-64
2023/03/09 07:24:35;;;;;;;56.47;36.75;;;;;;;0.83;100.00;99591.50;5111397;28;20042;-64
2023/03/09 07:27:01;;;;;;;60.75;37.78;;;;;;;0.86;100.00;99588.72;5116811;27;20466;-64
2023/03/09 07:29:26;;;;;;;59.97;36.72;;;;;;;0.85;100.00;99593.13;5109558;28;20042;-64
2023/03/09 07:31:52;;;;;;;59.15;37.47;;;;;;;0.87;100.00;99599.09;5117776;27;20451;-64
2023/03/09 07:34:17;;;;;;;62.08;38.20;;;;;;;0.87;100.00;99596.50;5114022;27;20665;-64
2023/03/09 07:36:42;;;;;;;56.60;36.22;;;;;;;0.88;100.00;99602.56;5115163;27;20152;-63
2023/03/09 07:39:08;;;;;;;55.38;35.20;;;;;;;0.87;100.00;99612.19;5114046;28;20031;-64
2023/03/09 07:41:33;;;;;;;56.88;35.80;;;;;;;0.90;100.00;99632.09;5111786;28;20055;-63
2023/03/09 07:43:58;;;;;;;57.17;35.80;;;;;;;0.91;100.00;99625.91;5107382;28;20098;-63
2023/03/09 07:46:24;;;;;;;59.42;35.75;;;;;;;0.92;100.00;99633.66;5112208;28;20470;-63
2023/03/09 07:48:51;;;;;;;61.45;36.72;;;;;;;0.92;100.00;99625.81;5110957;28;20028;-63
2023/03/09 07:51:16;;;;;;;54.03;34.83;;;;;;;0.92;100.00;99631.06;5111015;28;20030;-63
2023/03/09 07:53:42;;;;;;;57.40;36.25;;;;;;;0.94;100.00;99633.59;5110736;28;20023;-63
2023/03/09 07:56:08;;;;;;;57.38;35.70;;;;;;;0.97;100.00;99628.19;5110829;28;20054;-63
2023/03/09 07:58:35;;;;;;;55.03;35.55;;;;;;;0.99;100.00;99631.56;5110697;28;20030;-64
2023/03/09 08:01:02;;;;;;;57.97;34.90;;;;;;;1.01;100.00;99628.84;5109536;28;20031;-64
2023/03/09 08:03:27;;;;;;;58.13;34.90;;;;;;;1.02;100.00;99634.00;5111519;28;20063;-64
2023/03/09 08:05:55;;;;;;;59.15;36.08;;;;;;;1.04;100.00;99632.13;5111027;28;20773;-64
2023/03/09 08:08:25;;;;;;;58.95;36.70;;;;;;;1.06;100.00;99648.56;5112860;28;20019;-64
2023/03/09 08:10:52;;;;;;;61.45;37.47;;;;;;;1.08;100.00;99653.72;5101582;28;20026;-64
2023/03/09 08:13:17;;;;;;;58.88;35.40;;;;;;;1.11;100.00;99646.53;5111070;28;20034;-64
2023/03/09 08:15:43;;;;;;;62.38;36.90;;;;;;;1.14;100.00;99656.00;5112339;28;20028;-64
2023/03/09 08:18:09;;;;;;;58.55;35.40;;;;;;;1.16;100.00;99667.19;5114322;28;20114;-64
2023/03/09 08:20:34;;;;;;;60.80;35.42;;;;;;;1.20;100.00;99673.97;5111296;28;20077;-64
2023/03/09 08:22:59;;;;;;;57.58;35.65;;;;;;;1.21;100.00;99669.56;5111625;28;20546;-64
2023/03/09 08:25:25;;;;;;;62.03;36.35;;;;;;;1.21;100.00;99665.16;5111992;28;20529;-64
2023/03/09 08:27:51;;;;;;;55.53;35.05;;;;;;;1.25;100.00;99661.47;5112936;28;20035;-64
2023/03/09 08:30:20;;;;;;;61.92;34.47;;;;;;;1.26;100.00;99664.91;5112699;28;20114;-64
2023/03/09 08:32:47;;;;;;;59.58;37.67;;;;;;;1.31;100.00;99673.34;5113208;28;20063;-64
2023/03/09 08:35:16;;;;;;;59.10;34.90;;;;;;;1.33;100.00;99684.56;5112961;28;20047;-64
2023/03/09 08:37:42;;;;;;;59.65;36.17;;;;;;;1.34;100.00;99683.63;5109372;28;20050;-64
2023/03/09 08:40:08;;;;;;;57.70;34.85;;;;;;;1.37;100.00;99695.72;5111740;28;20027;-64
2023/03/09 08:42:33;;;;;;;58.60;36.03;;;;;;;1.41;100.00;99690.19;5054486;28;1066418;-63
2023/03/09 08:45:00;;;;;;;57.72;35.35;;;;;;;1.45;100.00;99702.19;5112178;27;20038;-63
2023/03/09 08:47:25;;;;;;;61.03;34.85;;;;;;;1.47;100.00;99687.22;5110522;27;20085;-64
2023/03/09 08:49:51;;;;;;;59.33;34.40;;;;;;;1.50;100.00;99690.59;5108158;28;20039;-64
2023/03/09 08:52:17;;;;;;;62.00;36.83;;;;;;;1.51;100.00;99715.84;5112309;27;20058;-64
2023/03/09 08:54:42;;;;;;;60.33;36.53;;;;;;;1.53;100.00;99727.88;5116728;27;20064;-64
2023/03/09 08:57:08;;;;;;;54.90;34.70;;;;;;;1.54;100.00;99734.81;5113253;28;20059;-64
2023/03/09 08:59:34;;;;;;;58.67;35.35;;;;;;;1.57;100.00;99728.59;5110523;28;20446;-64
2023/03/09 09:01:59;;;;;;;56.33;35.10;;;;;;;1.60;100.00;99717.91;5112628;27;20030;-65
2023/03/09 09:04:25;;;;;;;61.08;34.88;;;;;;;1.59;100.00;99726.72;5110557;27;20020;-64
2023/03/09 09:06:50;;;;;;;59.65;34.97;;;;;;;1.61;100.00;99736.16;5125972;27;20064;-64
2023/03/09 09:09:15;;;;;;;60.08;36.38;;;;;;;1.64;100.00;99735.16;5097851;28;20466;-64
2023/03/09 09:11:41;;;;;;;59.75;35.85;;;;;;;1.69;100.00;99737.50;5109714;28;20035;-63
2023/03/09 09:14:06;;;;;;;60.63;35.53;;;;;;;1.69;100.00;99746.19;5106176;27;20019;-64
2023/03/09 09:16:31;;;;;;;56.00;34.90;;;;;;;1.70;100.00;99750.50;5113078;28;20517;-64
2023/03/09 09:18:57;;;;;;;58.20;34.78;;;;;;;1.74;100.00;99743.31;5112731;27;20032;-64
2023/03/09 09:21:22;;;;;;;60.50;34.65;;;;;;;1.77;100.00;99735.28;5104287;28;20032;-64
2023/03/09 09:23:49;;;;;;;57.75;34.90;;;;;;;1.81;100.00;99724.53;5111484;27;20106;-64
2023/03/09 09:26:15;;;;;;;56.97;35.60;;;;;;;1.82;100.00;99735.88;5111829;28;20043;-63
2023/03/09 09:28:42;;;;;;;61.20;36.45;;;;;;;1.84;100.00;99734.81;5093792;28;20043;-63
2023/03/09 09:31:12;;;;;;;55.55;34.20;;;;;;;1.87;100.00;99735.59;5112957;27;20042;-63
2023/03/09 09:33:38;;;;;;;58.30;36.47;;;;;;;1.90;100.00;99735.41;5113903;27;20454;-63
2023/03/09 09:36:06;;;;;;;54.35;35.33;;;;;;;1.93;100.00;99748.31;5109031;28;20032;-63
2023/03/09 09:38:35;;;;;;;57.75;35.58;;;;;;;1.97;100.00;99763.75;5110856;28;20046;-63
2023/03/09 09:41:25;;;;;;;56.33;35.35;;;;;;;2.03;100.00;99757.31;5113786;27;20051;-63
2023/03/09 09:43:55;;;;;;;58.30;34.25;;;;;;;2.00;100.00;99753.13;5114175;27;20069;-63
2023/03/09 09:46:22;;;;;;;53.10;34.10;;;;;;;2.00;100.00;99755.72;5109951;28;20042;-64
2023/03/09 09:48:49;;;;;;;58.78;34.35;;;;;;;2.03;100.00;99760.81;5112187;27;20390;-64
2023/03/09 09:52:00;;;;;;;57.63;35.90;;;;;;;2.07;100.00;99768.47;5109068;28;20379;-63
2023/03/09 09:54:36;;;;;;;58.65;35.60;;;;;;;2.11;100.00;99765.56;5030103;28;20124;-63
2023/03/09 09:57:10;;;;;;;58.70;35.50;;;;;;;2.12;100.00;99762.03;5025768;28;20052;-64
2023/03/09 10:00:22;;;;;;;58.97;36.63;;;;;;;2.15;100.00;99760.97;5074976;27;20100;-64
2023/03/09 10:03:02;;;;;;;56.53;34.70;;;;;;;2.12;100.00;99764.66;5111728;28;20028;-63
2023/03/09 10:05:33;;;;;;;57.45;36.20;;;;;;;2.14;100.00;99764.56;5109018;28;20511;-64
2023/03/09 10:08:23;;;;;;;58.40;36.25;;;;;;;2.15;100.00;99760.97;5113733;27;20039;-63
2023/03/09 10:10:49;;;;;;;60.47;36.97;;;;;;;2.21;100.00;99758.00;5107218;28;20044;-64
2023/03/09 10:13:22;;;;;;;59.72;35.90;;;;;;;2.21;100.00;99771.97;5110951;28;20039;-64
2023/03/09 10:15:48;;;;;;;56.17;34.97;;;;;;;2.23;100.00;99761.38;5109374;27;20036;-64
2023/03/09 10:18:23;;;;;;;55.08;35.85;;;;;;;2.26;100.00;99766.44;5114095;27;20037;-64
2023/03/09 10:20:51;;;;;;;56.65;36.58;;;;;;;2.30;100.00;99765.34;5110304;27;20024;-63
2023/03/09 10:23:22;;;;;;;55.88;34.05;;;;;;;2.38;100.00;99767.47;5108843;27;20024;-64
2023/03/09 10:25:51;;;;;;;57.40;36.13;;;;;;;2.45;100.00;99762.72;5111817;28;20034;-63
2023/03/09 10:28:20;;;;;;;54.45;35.00;;;;;;;2.48;100.00;99755.53;5101290;28;20035;-63
2023/03/09 10:31:08;;;;;;;53.38;35.15;;;;;;;2.54;100.00;99756.94;5103139;28;20023;-63
2023/03/09 10:33:45;;;;;;;59.55;36.05;;;;;;;2.58;100.00;99759.28;5105582;28;20096;-63
2023/03/09 10:36:23;;;;;;;56.00;36.22;;;;;;;2.62;100.00;99754.69;5110224;28;20031;-63
2023/03/09 10:38:50;;;;;;;55.33;36.03;;;;;;;2.62;100.00;99764.34;5109516;28;20030;-63
2023/03/09 10:41:19;;;;;;;55.88;34.92;;;;;;;2.65;100.00;99762.38;5106484;28;20071;-63
2023/03/09 10:43:45;;;;;;;57.60;37.33;;;;;;;2.68;100.00;99764.81;5107180;28;20058;-63
2023/03/09 10:46:20;;;;;;;55.85;35.97;;;;;;;2.71;100.00;99759.34;5110409;28;20042;-63
2023/03/09 10:48:46;;;;;;;54.20;33.85;;;;;;;2.78;100.00;99767.69;5111088;28;20486;-63
2023/03/09 10:51:36;;;;;;;51.42;33.05;;;;;;;2.83;100.00;99776.13;5110012;28;20144;-63
2023/03/09 10:54:31;;;;;;;53.13;33.67;;;;;;;2.92;100.00;99767.69;5107191;28;20032;-63
2023/03/09 10:56:57;;;;;;;52.28;32.67;;;;;;;2.94;100.00;99755.31;5107287;28;20042;-64
2023/03/09 10:59:24;;;;;;;47.78;32.95;;;;;;;2.96;100.00;99757.84;5096823;28;20039;-64
2023/03/09 11:01:52;;;;;;;50.70;32.70;;;;;;;3.01;100.00;99761.00;5103909;28;20027;-64
2023/03/09 11:04:23;;;;;;;48.67;33.17;;;;;;;3.06;100.00;99758.94;5111360;28;20064;-64
2023/03/09 11:06:53;;;;;;;50.22;32.30;;;;;;;3.07;100.00;99765.06;5107750;28;20039;-64
2023/03/09 11:09:49;;;;;;;47.08;32.08;;;;;;;3.13;100.00;99767.25;5109065;28;20107;-64
2023/03/09 11:12:16;;;;;;;48.83;32.30;;;;;;;3.13;100.00;99768.13;5108686;28;20047;-64
2023/03/09 11:14:51;;;;;;;48.33;31.98;;;;;;;3.16;100.00;99769.69;5101909;28;20050;-64
2023/03/09 11:17:27;;;;;;;48.30;32.00;;;;;;;3.18;100.00;99765.22;5110799;28;20036;-64
2023/03/09 11:20:18;;;;;;;47.75;31.35;;;;;;;3.23;100.00;99767.53;5100947;28;20025;-64